Time;durP1;ratioP1;P1;durP2;ratioP2;P2;SDS_P1;SDS_P2;PMS_P1;PMS_P2;Temp;Humidity;BMP_temperature;BMP_pressure;BME280_temperature;BME280_humidity;BME280_pressure;Samples;Min_cycle;Max_cycle;Signal;HPM_P1;HPM_P2
2022/05/01 00:00:02;;;;;;;12.40;7.50;;;;;;;13.78;61.05;100540.97;5096394;28;20048;-72
2022/05/01 00:02:30;;;;;;;12.30;7.28;;;;;;;13.42;62.68;100541.69;5078388;28;20101;-72
2022/05/01 00:04:59;;;;;;;12.90;8.00;;;;;;;13.43;62.65;100544.25;5078019;28;20051;-72
2022/05/01 00:07:27;;;;;;;11.32;7.10;;;;;;;13.48;62.28;100538.56;5096051;28;20044;-72
2022/05/01 00:09:56;;;;;;;11.93;7.80;;;;;;;13.42;62.59;100539.00;5077688;28;20473;-72
2022/05/01 00:12:29;;;;;;;12.07;7.05;;;;;;;13.55;62.62;100539.03;5077716;28;20048;-72
2022/05/01 00:14:57;;;;;;;11.52;7.80;;;;;;;13.47;62.85;100542.22;5096078;28;20105;-72
2022/05/01 00:17:25;;;;;;;13.43;7.57;;;;;;;13.55;62.56;100542.56;5095843;28;20123;-72
2022/05/01 00:19:54;;;;;;;12.35;7.45;;;;;;;13.53;62.48;100536.47;5077839;28;20113;-72
2022/05/01 00:22:22;;;;;;;11.93;7.90;;;;;;;13.58;62.51;100544.16;5095712;28;20040;-72
2022/05/01 00:24:51;;;;;;;11.50;7.45;;;;;;;13.52;62.81;100532.06;5095892;28;20048;-72
2022/05/01 00:27:20;;;;;;;11.30;7.78;;;;;;;13.45;63.40;100538.78;5095658;28;20040;-72
2022/05/01 00:29:48;;;;;;;12.85;8.00;;;;;;;13.44;63.80;100532.56;5077577;28;20070;-72
2022/05/01 00:32:17;;;;;;;13.48;7.90;;;;;;;13.40;64.32;100536.41;5077401;28;20496;-73
2022/05/01 00:37:31;;;;;;;15.90;8.80;;;;;;;13.32;64.20;100537.91;5095374;28;20044;-72
2022/05/01 00:40:00;;;;;;;12.93;8.48;;;;;;;13.12;64.75;100526.66;5077445;28;20052;-72
2022/05/01 00:42:29;;;;;;;13.25;8.43;;;;;;;13.22;64.69;100539.47;5077212;28;20044;-72
2022/05/01 00:44:57;;;;;;;11.25;8.00;;;;;;;13.31;63.97;100541.53;5095555;28;20397;-72
2022/05/01 00:47:26;;;;;;;10.38;7.40;;;;;;;13.27;63.54;100540.88;5094970;28;20040;-72
2022/05/01 00:49:54;;;;;;;11.30;7.25;;;;;;;13.24;62.66;100535.75;5095458;28;20044;-72
2022/05/01 00:52:25;;;;;;;10.80;6.82;;;;;;;13.30;61.75;100539.81;5095114;28;20074;-72
2022/05/01 00:54:53;;;;;;;10.25;6.68;;;;;;;13.21;61.85;100540.41;5095510;28;20461;-72
2022/05/01 00:57:21;;;;;;;8.80;6.68;;;;;;;13.10;62.51;100539.28;5076916;28;20135;-72
2022/05/01 00:59:51;;;;;;;9.55;7.10;;;;;;;13.15;61.96;100547.88;5095001;28;20040;-72
2022/05/01 01:02:20;;;;;;;10.43;6.75;;;;;;;13.16;61.86;100546.06;5076780;28;20051;-72
2022/05/01 01:04:51;;;;;;;9.20;6.18;;;;;;;13.18;62.16;100549.50;5076883;28;20048;-72
2022/05/01 01:07:19;;;;;;;11.95;6.85;;;;;;;13.22;61.44;100544.81;5094789;28;20074;-72
2022/05/01 01:09:47;;;;;;;13.02;6.85;;;;;;;13.20;61.60;100552.09;5094731;28;20086;-72
2022/05/01 01:15:10;;;;;;;8.85;6.15;;;;;;;13.15;61.39;100547.88;5094736;28;20052;-72
2022/05/01 01:17:41;;;;;;;9.65;6.57;;;;;;;12.96;62.60;100552.72;5095167;28;20111;-72
2022/05/01 01:20:13;;;;;;;8.90;6.15;;;;;;;12.99;62.13;100551.66;5094737;28;20127;-73
2022/05/01 01:22:44;;;;;;;10.88;6.60;;;;;;;13.08;61.45;100551.91;5094814;28;20105;-72
2022/05/01 01:25:14;;;;;;;10.35;6.57;;;;;;;13.15;61.33;100547.88;5094651;28;20044;-73
2022/05/01 01:27:42;;;;;;;10.10;6.65;;;;;;;13.23;61.41;100543.88;5094667;28;20044;-72
2022/05/01 01:32:57;;;;;;;11.13;6.82;;;;;;;12.97;63.32;100549.09;5094685;28;20546;-72
2022/05/01 01:35:27;;;;;;;11.27;6.57;;;;;;;12.92;63.71;100545.84;5094309;28;20098;-72
2022/05/01 01:37:57;;;;;;;10.90;6.55;;;;;;;13.00;62.80;100538.16;5094712;28;20059;-72
2022/05/01 01:40:30;;;;;;;11.07;7.10;;;;;;;12.98;63.91;100541.91;5076176;28;20058;-72
2022/05/01 01:42:59;;;;;;;9.80;6.30;;;;;;;12.81;63.95;100543.00;5094152;28;20570;-72
2022/05/01 01:45:29;;;;;;;11.63;6.60;;;;;;;12.59;65.25;100536.38;5094217;28;20040;-72
2022/05/01 01:47:57;;;;;;;10.13;6.75;;;;;;;12.71;64.82;100536.53;5075805;28;20083;-72
2022/05/01 01:50:26;;;;;;;11.77;6.70;;;;;;;12.79;64.59;100536.91;5094012;28;20475;-72
2022/05/01 01:52:54;;;;;;;10.35;7.15;;;;;;;12.55;65.71;100537.53;5076157;28;20072;-72
2022/05/01 01:55:24;;;;;;;10.38;7.05;;;;;;;12.34;66.83;100538.88;5075838;28;20066;-72
2022/05/01 01:57:52;;;;;;;12.13;7.10;;;;;;;12.42;66.65;100536.56;5094150;28;20040;-72
2022/05/01 02:00:20;;;;;;;11.05;7.38;;;;;;;12.49;66.49;100537.06;5092481;28;20532;-72
2022/05/01 02:02:48;;;;;;;11.23;7.47;;;;;;;12.60;65.84;100538.09;5094176;28;20047;-72
2022/05/01 02:05:17;;;;;;;12.60;7.07;;;;;;;12.65;65.43;100536.94;5093536;28;20550;-72
2022/05/01 02:07:45;;;;;;;9.65;6.60;;;;;;;12.80;64.68;100535.94;5093779;28;20044;-72
2022/05/01 02:10:14;;;;;;;10.18;7.18;;;;;;;12.69;65.28;100539.31;5093633;28;20044;-73
2022/05/01 02:12:45;;;;;;;10.95;6.90;;;;;;;12.57;65.85;100532.94;5093980;28;20040;-72
2022/05/01 02:15:13;;;;;;;9.68;6.95;;;;;;;12.72;65.82;100532.91;5093603;28;20131;-72
2022/05/01 02:17:42;;;;;;;11.57;7.22;;;;;;;12.77;65.65;100538.81;5093811;28;20123;-72
2022/05/01 02:20:11;;;;;;;14.70;7.40;;;;;;;12.58;66.16;100533.78;5093738;28;20047;-72
2022/05/01 02:22:41;;;;;;;13.18;7.47;;;;;;;12.48;67.23;100530.00;5075911;28;20054;-72
2022/05/01 02:25:10;;;;;;;11.63;7.30;;;;;;;12.64;66.29;100529.84;5093773;28;20047;-72
2022/05/01 02:27:38;;;;;;;10.93;6.97;;;;;;;12.46;67.27;100535.44;5093665;28;20090;-72
2022/05/01 02:30:10;;;;;;;11.45;7.45;;;;;;;12.65;65.73;100532.44;5093181;28;20054;-72
2022/05/01 02:32:38;;;;;;;9.43;6.90;;;;;;;12.51;66.77;100532.47;5093694;28;20044;-72
2022/05/01 02:35:09;;;;;;;9.80;7.60;;;;;;;12.37;67.28;100536.03;5093626;28;20044;-72
2022/05/01 02:37:37;;;;;;;10.65;7.38;;;;;;;12.48;67.06;100525.50;5093192;28;20047;-72
2022/05/01 02:40:07;;;;;;;9.45;7.20;;;;;;;12.35;67.53;100529.03;5093178;28;20040;-72
2022/05/01 02:42:35;;;;;;;11.02;7.03;;;;;;;12.61;66.62;100530.91;5075071;28;20052;-72
2022/05/01 02:45:06;;;;;;;15.02;7.70;;;;;;;12.36;68.28;100533.44;5075417;28;20071;-72
2022/05/01 02:47:40;;;;;;;11.90;7.30;;;;;;;12.49;67.53;100518.31;5093471;28;20050;-72
2022/05/01 02:50:10;;;;;;;10.68;7.88;;;;;;;12.49;68.81;100526.34;5093311;28;20063;-72
2022/05/01 02:52:38;;;;;;;12.63;8.10;;;;;;;12.35;69.73;100532.56;5074958;28;20059;-72
2022/05/01 02:55:07;;;;;;;12.13;7.50;;;;;;;12.52;69.50;100523.47;5093458;28;20078;-72
2022/05/01 02:57:36;;;;;;;14.13;8.30;;;;;;;12.46;69.59;100527.41;5092849;28;20063;-72
2022/05/01 03:00:05;;;;;;;10.82;8.00;;;;;;;12.38;69.80;100529.72;5096958;28;20040;-72
2022/05/01 03:02:34;;;;;;;13.63;8.13;;;;;;;12.28;70.13;100528.56;5079129;28;20055;-72
2022/05/01 03:05:04;;;;;;;11.60;7.35;;;;;;;12.28;70.19;100532.09;5097423;28;20071;-72
2022/05/01 03:07:32;;;;;;;10.07;7.63;;;;;;;12.26;70.36;100526.00;5097472;28;20102;-72
2022/05/01 03:10:00;;;;;;;11.80;7.80;;;;;;;12.32;69.65;100532.75;5097033;28;20144;-72
2022/05/01 03:12:29;;;;;;;11.50;7.60;;;;;;;12.52;69.27;100526.16;5096792;28;20055;-72
2022/05/01 03:14:57;;;;;;;12.25;8.07;;;;;;;12.35;69.13;100539.72;5078830;28;20075;-72
2022/05/01 03:22:10;;;;;;;11.63;7.50;;;;;;;12.17;70.67;100536.41;5097020;28;20051;-72
2022/05/01 03:23:02;;;;;;;12.63;8.02;;;;;;;12.16;70.44;100535.56;5096927;28;20043;-72
2022/05/01 03:25:31;;;;;;;10.43;6.95;;;;;;;12.52;68.73;100536.84;5096877;28;20455;-72
2022/05/01 03:27:59;;;;;;;14.15;8.07;;;;;;;12.49;69.05;100532.56;5078909;28;20112;-72
2022/05/01 03:30:28;;;;;;;13.65;7.47;;;;;;;12.37;70.27;100536.03;5096732;28;20039;-72
2022/05/01 03:33:05;;;;;;;10.90;7.72;;;;;;;12.41;70.40;100544.69;5097082;28;20040;-72
2022/05/01 03:35:36;;;;;;;13.57;8.02;;;;;;;12.39;70.70;100552.81;5096748;28;20452;-72
2022/05/01 03:38:06;;;;;;;11.73;7.35;;;;;;;12.23;70.66;100541.34;5096721;28;20450;-72
2022/05/01 03:40:35;;;;;;;11.13;7.22;;;;;;;12.29;70.48;100549.00;5078293;28;20055;-72
2022/05/01 03:43:03;;;;;;;10.48;7.35;;;;;;;12.25;70.70;100544.78;5078452;28;20105;-72
2022/05/01 03:45:32;;;;;;;12.98;7.32;;;;;;;12.52;68.38;100537.72;5096453;28;20047;-72
2022/05/01 03:48:00;;;;;;;11.68;7.00;;;;;;;12.57;68.61;100540.09;5096600;28;20062;-72
2022/05/01 03:50:29;;;;;;;11.15;7.72;;;;;;;12.62;69.87;100551.34;5096317;28;20042;-72
2022/05/01 03:52:58;;;;;;;13.75;8.52;;;;;;;12.46;71.73;100543.47;5078407;28;20055;-72
2022/05/01 03:55:26;;;;;;;13.95;8.23;;;;;;;12.52;70.08;100545.72;5078147;28;20051;-72
2022/05/01 03:57:55;;;;;;;11.68;7.40;;;;;;;12.37;71.22;100548.53;5078275;28;20052;-72
2022/05/01 04:00:24;;;;;;;11.57;7.90;;;;;;;12.28;72.06;100555.31;5096250;28;20115;-72
2022/05/01 04:02:52;;;;;;;11.55;7.63;;;;;;;12.36;71.08;100555.72;5096071;28;20477;-72
2022/05/01 04:05:20;;;;;;;11.15;7.22;;;;;;;12.31;70.60;100558.66;5096067;28;20047;-72
2022/05/01 04:07:48;;;;;;;11.25;7.80;;;;;;;12.40;70.59;100559.03;5078105;28;20044;-72
2022/05/01 04:10:18;;;;;;;11.35;7.63;;;;;;;12.35;70.08;100561.13;5077421;28;20123;-72
2022/05/01 04:12:47;;;;;;;14.73;8.48;;;;;;;12.44;69.72;100561.41;5095920;28;20043;-72
2022/05/01 04:15:15;;;;;;;9.98;8.20;;;;;;;12.32;70.24;100563.03;5077883;28;20471;-72
2022/05/01 04:17:44;;;;;;;12.82;7.88;;;;;;;12.48;69.71;100554.06;5095861;28;20044;-72
2022/05/01 04:20:14;;;;;;;11.10;7.57;;;;;;;12.50;68.94;100563.72;5096091;28;20439;-72
2022/05/01 04:22:44;;;;;;;13.20;8.00;;;;;;;12.30;70.36;100564.09;5077582;28;20083;-72
2022/05/01 04:25:17;;;;;;;13.13;7.85;;;;;;;12.34;70.38;100570.97;5095651;28;20040;-72
2022/05/01 04:27:48;;;;;;;12.90;8.18;;;;;;;12.44;69.71;100569.44;5095500;28;20382;-72
2022/05/01 04:30:17;;;;;;;12.93;7.90;;;;;;;12.45;70.47;100573.84;5095987;28;20067;-72
2022/05/01 04:32:50;;;;;;;13.18;8.02;;;;;;;12.49;71.65;100579.88;5095877;28;20040;-72
2022/05/01 04:35:23;;;;;;;10.57;7.32;;;;;;;12.58;71.34;100579.28;5095905;28;20044;-72
2022/05/01 04:37:52;;;;;;;12.05;7.35;;;;;;;12.56;69.67;100579.38;5077255;28;20101;-72
2022/05/01 04:40:21;;;;;;;12.45;7.93;;;;;;;12.58;69.08;100585.50;5095357;28;20164;-72
2022/05/01 04:43:01;;;;;;;11.15;8.10;;;;;;;12.55;69.67;100584.84;5095533;28;20044;-72
2022/05/01 04:45:30;;;;;;;12.32;7.13;;;;;;;12.68;69.13;100579.56;5077264;28;20155;-72
2022/05/01 04:47:58;;;;;;;13.15;7.30;;;;;;;12.78;68.30;100581.56;5077350;28;20443;-72
2022/05/01 04:50:27;;;;;;;12.35;7.32;;;;;;;12.76;67.64;100583.47;5094897;28;20102;-73
2022/05/01 04:52:56;;;;;;;13.95;7.88;;;;;;;12.82;67.53;100579.53;5077142;28;20439;-72
2022/05/01 04:55:24;;;;;;;11.88;7.80;;;;;;;12.81;67.28;100581.34;5095094;28;20465;-73
2022/05/01 04:57:53;;;;;;;13.05;8.50;;;;;;;12.85;66.75;100580.19;5095422;28;20032;-72
2022/05/01 05:00:23;;;;;;;13.50;8.70;;;;;;;12.83;66.79;100578.56;5077204;28;20175;-72
2022/05/01 05:02:53;;;;;;;11.43;7.97;;;;;;;12.87;67.04;100580.97;5095382;28;20055;-72
2022/05/01 05:05:22;;;;;;;12.93;8.20;;;;;;;13.04;65.02;100582.56;5094940;28;20036;-72
2022/05/01 05:07:50;;;;;;;11.23;7.95;;;;;;;13.07;65.17;100585.03;5095143;28;20105;-72
2022/05/01 05:10:18;;;;;;;11.38;7.32;;;;;;;13.23;64.23;100584.06;5077023;28;20051;-72
2022/05/01 05:12:48;;;;;;;10.73;7.85;;;;;;;13.33;64.35;100583.34;5076545;28;20057;-72
2022/05/01 05:15:20;;;;;;;11.77;8.48;;;;;;;13.29;65.44;100586.31;5094981;28;20477;-72
2022/05/01 05:17:50;;;;;;;11.70;7.40;;;;;;;13.52;64.04;100587.47;5095135;28;20093;-72
2022/05/01 05:20:18;;;;;;;10.57;7.80;;;;;;;13.70;63.98;100591.56;5095155;28;20036;-72
2022/05/01 05:22:47;;;;;;;10.93;7.38;;;;;;;13.69;64.08;100585.34;5093948;28;20036;-72
2022/05/01 05:25:19;;;;;;;11.45;7.68;;;;;;;13.85;63.02;100595.06;5094758;28;20040;-72
2022/05/01 05:27:48;;;;;;;13.73;8.15;;;;;;;13.92;61.91;100597.22;5094636;28;20063;-72
2022/05/01 05:30:16;;;;;;;13.25;7.53;;;;;;;14.12;61.76;100592.28;5094705;28;20043;-72
2022/05/01 05:32:45;;;;;;;13.23;7.95;;;;;;;14.38;61.06;100594.03;5075806;28;20546;-72
2022/05/01 05:35:14;;;;;;;10.10;6.72;;;;;;;14.38;61.51;100587.78;5076531;28;20443;-72
2022/05/01 05:37:42;;;;;;;8.63;6.97;;;;;;;14.27;60.63;100592.06;5075925;28;20060;-72
2022/05/01 05:40:12;;;;;;;14.48;7.47;;;;;;;14.62;58.58;100596.81;5076210;28;20052;-71
2022/05/01 05:42:41;;;;;;;10.32;7.22;;;;;;;14.82;57.89;100603.44;5075713;28;20582;-72
2022/05/01 05:45:12;;;;;;;12.40;7.35;;;;;;;14.62;58.58;100607.56;5094395;28;20396;-72
2022/05/01 05:47:40;;;;;;;13.02;7.43;;;;;;;14.72;57.26;100607.75;5076188;28;20402;-72
2022/05/01 05:50:09;;;;;;;10.00;7.18;;;;;;;14.98;57.05;100605.88;5094452;28;20044;-72
2022/05/01 05:52:39;;;;;;;11.80;7.60;;;;;;;15.03;56.33;100611.75;5075794;28;20093;-71
2022/05/01 05:55:09;;;;;;;9.00;6.38;;;;;;;14.79;57.30;100609.88;5094280;28;20393;-72
2022/05/01 05:57:37;;;;;;;10.50;6.97;;;;;;;15.07;55.33;100606.06;5093609;28;20050;-72
2022/05/01 06:00:06;;;;;;;9.90;6.55;;;;;;;15.14;54.75;100609.13;5093867;28;20044;-72
2022/05/01 06:02:36;;;;;;;14.05;7.30;;;;;;;15.24;54.36;100612.84;5075682;28;20056;-72
2022/05/01 06:05:05;;;;;;;12.75;6.90;;;;;;;15.13;53.40;100604.72;5094075;28;20063;-71
2022/05/01 06:07:34;;;;;;;10.77;6.80;;;;;;;15.32;54.24;100615.84;5093399;28;20496;-71
2022/05/01 06:10:04;;;;;;;11.57;7.47;;;;;;;15.48;53.36;100614.72;5075644;28;20056;-72
2022/05/01 06:12:32;;;;;;;9.40;6.63;;;;;;;15.50;53.21;100621.69;5075076;28;20485;-71
2022/05/01 06:15:03;;;;;;;10.38;7.25;;;;;;;15.67;52.25;100618.63;5093288;28;20106;-72
2022/05/01 06:17:32;;;;;;;11.38;6.93;;;;;;;15.74;52.24;100619.03;5093693;28;20047;-72
2022/05/01 06:20:00;;;;;;;9.82;6.78;;;;;;;16.16;51.83;100620.25;5075787;28;20127;-72
2022/05/01 06:22:28;;;;;;;9.80;6.75;;;;;;;16.20;51.67;100619.00;5075538;28;20105;-71
2022/05/01 06:24:56;;;;;;;10.90;7.43;;;;;;;16.32;51.48;100619.91;5075577;28;20067;-72
2022/05/01 06:27:26;;;;;;;9.43;6.90;;;;;;;16.65;50.56;100604.75;5075502;28;20075;-72
2022/05/01 06:29:54;;;;;;;8.30;6.00;;;;;;;16.99;49.22;100606.50;5075223;28;20140;-72
2022/05/01 06:32:22;;;;;;;11.18;6.53;;;;;;;17.15;49.20;100609.63;5093445;28;20052;-72
2022/05/01 06:34:52;;;;;;;10.35;6.70;;;;;;;17.25;48.57;100612.41;5075179;28;20048;-72
2022/05/01 06:37:20;;;;;;;9.40;6.38;;;;;;;17.57;48.49;100611.59;5075548;28;20454;-72
2022/05/01 06:39:49;;;;;;;11.75;6.75;;;;;;;17.65;48.86;100612.66;5075210;28;20126;-72
2022/05/01 06:42:17;;;;;;;8.63;6.40;;;;;;;17.62;48.56;100617.47;5093441;28;20048;-72
2022/05/01 06:44:47;;;;;;;8.35;6.38;;;;;;;17.77;47.09;100621.59;5074997;28;20135;-72
2022/05/01 06:47:15;;;;;;;11.05;6.10;;;;;;;17.14;48.75;100613.31;5075378;28;20056;-71
2022/05/01 06:49:43;;;;;;;9.82;6.53;;;;;;;17.24;48.80;100620.63;5075022;28;20048;-72
2022/05/01 06:52:12;;;;;;;9.38;6.07;;;;;;;17.54;48.42;100612.69;5074877;28;20516;-72
2022/05/01 06:54:40;;;;;;;9.93;6.45;;;;;;;17.50;48.27;100615.78;5093178;28;20042;-72
2022/05/01 06:57:12;;;;;;;12.82;6.50;;;;;;;17.42;49.28;100616.44;5093370;28;20050;-72
2022/05/01 06:59:40;;;;;;;9.98;6.50;;;;;;;17.52;49.04;100617.38;5074942;28;20052;-72
2022/05/01 07:02:10;;;;;;;11.15;6.35;;;;;;;17.87;48.87;100609.06;5074809;28;20481;-72
2022/05/01 07:04:39;;;;;;;9.18;5.97;;;;;;;18.54;47.52;100602.38;5074824;28;20131;-72
2022/05/01 07:07:07;;;;;;;8.77;6.50;;;;;;;18.75;47.67;100603.19;5075019;28;20093;-72
2022/05/01 07:09:36;;;;;;;8.80;5.85;;;;;;;18.87;47.11;100612.06;5074860;28;20079;-72
2022/05/01 07:12:05;;;;;;;8.95;6.30;;;;;;;18.84;45.99;100615.88;5093104;28;20043;-72
2022/05/01 07:14:35;;;;;;;8.27;5.90;;;;;;;19.11;46.22;100606.31;5092872;28;20052;-71
2022/05/01 07:17:04;;;;;;;8.98;6.13;;;;;;;19.07;46.01;100607.56;5093120;28;20066;-72
2022/05/01 07:19:33;;;;;;;10.15;5.97;;;;;;;18.95;46.86;100608.66;5075083;28;20050;-72
2022/05/01 07:22:02;;;;;;;9.65;5.88;;;;;;;18.86;47.85;100613.03;5075087;28;20047;-72
2022/05/01 07:24:30;;;;;;;9.13;5.78;;;;;;;18.82;47.66;100604.38;5074925;28;20056;-72
2022/05/01 07:26:58;;;;;;;8.70;5.60;;;;;;;18.72;46.89;100599.88;5074656;28;20040;-73
2022/05/01 07:29:26;;;;;;;8.20;5.30;;;;;;;18.78;46.81;100593.94;5074863;28;20122;-73
2022/05/01 07:31:55;;;;;;;7.43;5.13;;;;;;;18.72;47.06;100598.06;5092451;28;20097;-73
2022/05/01 07:34:23;;;;;;;8.32;5.28;;;;;;;18.57;48.05;100591.28;5074957;28;20056;-73
2022/05/01 07:36:52;;;;;;;7.03;4.43;;;;;;;18.72;47.25;100589.97;5074622;28;20071;-73
2022/05/01 07:39:21;;;;;;;8.23;4.43;;;;;;;18.82;48.53;100598.97;5074277;28;20059;-72
2022/05/01 07:41:49;;;;;;;9.05;4.70;;;;;;;18.84;47.50;100594.28;5074545;28;20118;-73
2022/05/01 07:44:17;;;;;;;5.97;4.10;;;;;;;18.84;48.11;100590.72;5093656;28;20040;-72
2022/05/01 07:46:46;;;;;;;7.90;4.38;;;;;;;18.94;48.34;100586.19;5078224;28;20054;-73
2022/05/01 07:49:14;;;;;;;6.20;3.90;;;;;;;18.93;46.25;100578.22;5078466;28;20048;-73
2022/05/01 07:51:43;;;;;;;6.55;3.80;;;;;;;19.02;46.44;100580.09;5078163;28;20447;-73
2022/05/01 07:54:12;;;;;;;5.70;3.63;;;;;;;19.06;46.61;100578.81;5078235;28;20055;-73
2022/05/01 07:56:46;;;;;;;6.10;3.70;;;;;;;19.01;47.38;100578.38;5078092;28;20044;-73
2022/05/01 07:59:14;;;;;;;5.55;3.70;;;;;;;19.02;47.62;100569.28;5078490;28;20514;-73
2022/05/01 08:01:42;;;;;;;6.53;4.22;;;;;;;18.99;46.56;100577.66;5096213;28;20461;-73
2022/05/01 08:04:28;;;;;;;7.68;4.07;;;;;;;18.96;46.82;100573.38;5078170;28;20498;-72
2022/05/01 08:07:01;;;;;;;6.82;3.25;;;;;;;18.62;47.06;100570.09;5077910;28;20479;-72
2022/05/01 08:09:31;;;;;;;5.47;3.35;;;;;;;18.62;47.93;100567.41;5078293;28;20605;-72
2022/05/01 08:12:00;;;;;;;5.85;2.72;;;;;;;18.93;47.85;100570.13;5095989;28;20451;-73
2022/05/01 08:14:28;;;;;;;4.68;2.92;;;;;;;19.03;48.06;100560.19;5095795;28;20056;-73
2022/05/01 08:16:56;;;;;;;6.28;2.85;;;;;;;19.19;47.21;100568.59;5095918;28;20066;-73
2022/05/01 08:22:11;;;;;;;4.60;2.45;;;;;;;19.21;44.02;100560.38;5077902;28;20511;-73
2022/05/01 08:24:40;;;;;;;3.40;2.05;;;;;;;19.32;43.91;100558.38;5095758;28;20051;-73
2022/05/01 08:27:09;;;;;;;6.68;2.38;;;;;;;19.42;43.54;100559.22;5077815;28;20040;-73
2022/05/01 08:29:38;;;;;;;3.20;1.98;;;;;;;19.40;43.10;100550.41;5077673;28;20040;-73
2022/05/01 08:32:08;;;;;;;3.70;2.10;;;;;;;19.36;43.21;100557.09;5077589;28;20075;-73
2022/05/01 08:34:37;;;;;;;3.75;2.20;;;;;;;19.44;42.25;100546.41;5077375;28;20403;-72
2022/05/01 08:37:06;;;;;;;4.60;2.10;;;;;;;19.49;41.53;100548.69;5094633;28;20040;-73
2022/05/01 08:39:35;;;;;;;4.40;2.08;;;;;;;19.58;41.63;100547.84;5077345;28;20055;-73
2022/05/01 08:42:06;;;;;;;3.85;1.98;;;;;;;19.59;40.74;100551.41;5077255;28;20055;-73
2022/05/01 08:44:37;;;;;;;4.88;2.10;;;;;;;19.75;38.33;100546.28;5077582;28;20056;-73
2022/05/01 08:47:20;;;;;;;3.97;1.88;;;;;;;19.85;38.63;100544.41;5077723;28;20460;-73
2022/05/01 08:49:49;;;;;;;3.67;1.77;;;;;;;19.81;38.54;100537.59;5077229;28;20552;-73
2022/05/01 08:52:21;;;;;;;4.95;1.90;;;;;;;19.74;38.42;100539.16;5077360;28;20054;-73
2022/05/01 08:54:49;;;;;;;4.50;1.95;;;;;;;19.72;38.65;100528.50;5077024;28;20386;-74
2022/05/01 08:57:21;;;;;;;4.28;1.92;;;;;;;19.76;38.23;100529.03;5094228;28;20485;-73
2022/05/01 08:59:53;;;;;;;3.47;1.83;;;;;;;19.92;38.45;100537.44;5095168;28;20128;-73
2022/05/01 09:02:21;;;;;;;3.75;1.90;;;;;;;19.97;38.88;100535.13;5076720;28;20075;-73
2022/05/01 09:04:51;;;;;;;3.90;2.00;;;;;;;19.99;37.80;100540.44;5076853;28;20083;-73
2022/05/01 09:07:19;;;;;;;3.50;1.92;;;;;;;19.95;38.45;100529.00;5095089;28;20044;-73
2022/05/01 09:09:50;;;;;;;3.33;2.20;;;;;;;20.11;38.13;100533.84;5076462;28;20055;-73
2022/05/01 09:15:07;;;;;;;4.18;2.22;;;;;;;20.20;36.49;100526.69;5094676;28;20051;-73
2022/05/01 09:17:36;;;;;;;5.55;2.40;;;;;;;20.23;36.95;100518.25;5077166;28;20381;-73
2022/05/01 09:20:10;;;;;;;4.63;2.38;;;;;;;20.13;35.72;100523.69;5076440;28;20081;-73
2022/05/01 09:22:50;;;;;;;4.72;2.58;;;;;;;19.98;36.00;100526.03;5076894;28;20445;-73
2022/05/01 09:25:22;;;;;;;5.18;2.65;;;;;;;20.02;36.20;100519.31;5076841;28;20472;-73
2022/05/01 09:27:56;;;;;;;5.43;2.33;;;;;;;20.05;36.61;100522.72;5076451;28;20048;-74
2022/05/01 09:30:32;;;;;;;4.32;2.03;;;;;;;20.11;36.33;100522.16;5094766;28;20485;-73
2022/05/01 09:33:02;;;;;;;5.43;2.30;;;;;;;19.74;36.90;100522.94;5094134;28;20542;-73
2022/05/01 09:35:32;;;;;;;3.97;2.35;;;;;;;19.65;35.94;100521.09;5094195;28;20051;-73
2022/05/01 09:38:15;;;;;;;4.38;2.40;;;;;;;19.67;37.04;100511.81;5094488;28;20122;-73
2022/05/01 09:40:45;;;;;;;5.53;2.40;;;;;;;19.93;36.73;100503.94;5094607;28;20062;-73
2022/05/01 09:43:34;;;;;;;4.55;2.35;;;;;;;20.02;37.52;100511.19;5076308;28;20048;-73
2022/05/01 09:46:18;;;;;;;3.85;2.40;;;;;;;20.16;37.14;100514.41;5075970;28;20052;-73
2022/05/01 09:48:58;;;;;;;5.07;2.25;;;;;;;20.25;37.78;100510.81;5076039;28;20401;-76
2022/05/01 09:51:28;;;;;;;5.95;2.28;;;;;;;20.19;37.26;100497.91;5076435;28;20052;-76
2022/05/01 09:53:58;;;;;;;4.70;2.50;;;;;;;20.06;36.39;100500.91;5075360;28;20086;-71
2022/05/01 09:56:27;;;;;;;4.82;2.70;;;;;;;19.98;36.22;100508.94;5075311;28;20131;-77
2022/05/01 09:59:00;;;;;;;5.40;3.28;;;;;;;20.15;36.32;100505.44;5075576;28;20459;-76
2022/05/01 10:01:31;;;;;;;4.35;2.80;;;;;;;20.12;35.84;100502.19;5075592;28;20048;-77
2022/05/01 10:04:01;;;;;;;5.25;2.60;;;;;;;20.24;35.38;100495.56;5075756;28;20052;-77
2022/05/01 10:06:31;;;;;;;4.40;2.72;;;;;;;20.34;35.29;100490.13;5076175;28;20047;-77
2022/05/01 10:09:01;;;;;;;4.13;2.70;;;;;;;20.31;35.00;100504.81;5074871;28;20044;-77
2022/05/01 10:11:30;;;;;;;4.38;2.75;;;;;;;20.62;36.42;100497.28;5075714;28;20098;-77
2022/05/01 10:14:00;;;;;;;6.03;2.80;;;;;;;20.69;34.95;100489.41;5075227;28;20076;-77
2022/05/01 10:16:30;;;;;;;5.05;2.38;;;;;;;20.64;34.67;100487.16;5075560;28;20068;-77
2022/05/01 10:19:00;;;;;;;4.80;2.80;;;;;;;20.69;35.27;100486.72;5093726;28;20093;-77
2022/05/01 10:21:50;;;;;;;5.35;2.90;;;;;;;20.70;35.27;100480.28;5075271;28;20048;-82
2022/05/01 10:24:22;;;;;;;5.25;2.85;;;;;;;20.71;35.45;100481.97;5093732;28;20052;-76
2022/05/01 10:26:53;;;;;;;7.80;2.80;;;;;;;20.49;35.62;100473.25;5075265;28;20093;-76
2022/05/01 10:29:35;;;;;;;5.38;3.08;;;;;;;20.57;35.74;100476.06;5093843;28;20051;-77
2022/05/01 10:32:33;;;;;;;7.05;2.80;;;;;;;20.75;35.87;100469.81;5091949;28;20052;-77
2022/05/01 10:35:33;;;;;;;6.15;2.80;;;;;;;20.94;35.46;100474.25;5093318;28;20055;-76
2022/05/01 10:38:13;;;;;;;4.15;2.70;;;;;;;21.06;34.45;100473.91;5075154;28;20135;-77
2022/05/01 10:40:46;;;;;;;5.38;3.17;;;;;;;21.19;34.17;100468.06;5093258;28;20062;-76
2022/05/01 10:43:38;;;;;;;4.90;3.08;;;;;;;21.22;34.67;100456.91;5075052;28;20059;-76
2022/05/01 10:46:29;;;;;;;5.43;3.10;;;;;;;21.35;34.45;100460.13;5051465;28;20044;-77
2022/05/01 10:49:04;;;;;;;7.32;3.30;;;;;;;21.53;34.18;100457.41;5074906;28;20108;-77
2022/05/01 10:51:52;;;;;;;4.82;3.20;;;;;;;21.69;33.41;100449.34;5093358;28;20389;-75
2022/05/01 10:54:35;;;;;;;4.97;3.22;;;;;;;21.81;32.58;100446.34;5075296;28;20056;-77
2022/05/01 10:57:15;;;;;;;5.28;3.20;;;;;;;21.81;33.33;100449.06;5075076;28;20051;-74
2022/05/01 11:00:06;;;;;;;5.38;3.17;;;;;;;21.86;31.03;100452.19;5075412;28;20054;-73
2022/05/01 11:02:39;;;;;;;7.20;4.20;;;;;;;21.97;30.55;100446.47;5093438;28;20101;-74
2022/05/01 11:05:10;;;;;;;4.95;2.90;;;;;;;22.09;30.41;100447.91;5075135;28;20446;-75
2022/05/01 11:07:40;;;;;;;6.70;3.15;;;;;;;22.27;30.06;100445.97;5075286;28;20051;-76
2022/05/01 11:10:12;;;;;;;5.40;3.20;;;;;;;22.34;30.00;100446.19;5075032;28;20087;-75
2022/05/01 11:12:43;;;;;;;6.25;3.53;;;;;;;22.29;30.10;100448.53;5075374;28;20056;-77
2022/05/01 11:15:12;;;;;;;4.72;3.25;;;;;;;22.46;30.09;100441.28;5092728;28;20059;-76
2022/05/01 11:17:56;;;;;;;6.22;2.80;;;;;;;22.39;29.07;100442.97;5075155;28;20049;-75
2022/05/01 11:20:31;;;;;;;5.82;3.00;;;;;;;22.45;29.52;100436.88;5077558;28;20052;-77
2022/05/01 11:23:33;;;;;;;5.60;3.00;;;;;;;22.35;29.71;100436.16;5097030;28;20040;-78
2022/05/01 11:26:25;;;;;;;4.28;2.92;;;;;;;22.36;29.44;100432.44;5096639;28;20051;-74
2022/05/01 11:28:55;;;;;;;6.55;3.30;;;;;;;22.36;28.85;100427.00;5072475;28;20496;-76
2022/05/01 11:31:46;;;;;;;6.07;3.30;;;;;;;22.24;29.45;100419.13;5078956;28;20464;-75
2022/05/01 11:34:39;;;;;;;5.25;2.97;;;;;;;22.42;29.76;100418.19;5096849;28;20039;-76
2022/05/01 11:37:09;;;;;;;5.15;3.00;;;;;;;22.30;30.27;100414.09;5078364;28;20584;-77
2022/05/01 11:40:20;;;;;;;4.93;3.38;;;;;;;22.33;30.68;100414.59;5078885;28;20051;-76
2022/05/01 11:42:48;;;;;;;6.85;3.03;;;;;;;22.46;29.85;100416.84;5078610;28;20059;-77
2022/05/01 11:45:18;;;;;;;5.95;3.03;;;;;;;22.43;29.71;100406.31;5095183;28;20056;-75
2022/05/01 11:47:55;;;;;;;8.43;3.50;;;;;;;22.31;29.16;100410.34;5078570;28;20067;-75
2022/05/01 11:50:27;;;;;;;5.38;3.20;;;;;;;22.24;29.80;100413.72;5078797;28;20109;-75
2022/05/01 11:52:57;;;;;;;8.20;3.30;;;;;;;22.28;30.01;100409.63;5077980;28;20103;-75
2022/05/01 12:02:24;;;;;;;7.72;3.40;;;;;;;22.19;29.96;100399.75;5078308;28;20089;-74